Flugplatz Hameln-Pyrmont

Für EDVW sind keine METAR/TAF Berichte vorhanden.
Es werden die Flugwettermeldungen vom Flugplatz Buckeburg Airport in 37 km Entfernung angezeigt.

Bericht für ETHB

vom 07.03. um 02:20 UTC

Wind 2 kt aus 200°

Sichtweite 9000 m

Temperatur -1.0°C

Taupunkt -1.0°C

Luftfeuchtigkeit 100%

Luftdruck 1027 hPa

ETHB 070220Z AUTO 20002KT 9000 // ////// M01/M01 Q1027 ///
Keine Prognose (TAF) verfügbar.
Impressum